Time;durP1;ratioP1;P1;durP2;ratioP2;P2;SDS_P1;SDS_P2;PMS_P1;PMS_P2;Temp;Humidity;BMP_temperature;BMP_pressure;BME280_temperature;BME280_humidity;BME280_pressure;Samples;Min_cycle;Max_cycle;Signal;HPM_P1;HPM_P2
2022/09/20 00:02:23;;;;;;;5.57;2.67;;;;;;;;;;5071960;28;20209;-88
2022/09/20 00:04:50;;;;;;;3.13;2.47;;;;;;;;;;5071172;28;20233;-87
2022/09/20 00:07:17;;;;;;;6.17;2.60;;;;;;;;;;5071566;28;20661;-87
2022/09/20 00:09:44;;;;;;;7.67;2.53;;;;;;;;;;5071133;28;20260;-87
2022/09/20 00:12:11;;;;;;;5.60;2.20;;;;;;;;;;5071790;28;20224;-87
2022/09/20 00:14:38;;;;;;;4.30;2.50;;;;;;;;;;5071371;28;20236;-87
2022/09/20 00:17:05;;;;;;;2.90;2.53;;;;;;;;;;5071150;28;20198;-86
2022/09/20 00:19:33;;;;;;;7.87;2.80;;;;;;;;;;5070965;28;20241;-86
2022/09/20 00:22:00;;;;;;;3.20;2.33;;;;;;;;;;5075826;28;20200;-86
2022/09/20 00:24:27;;;;;;;5.83;2.50;;;;;;;;;;5082960;28;20225;-87
2022/09/20 00:26:55;;;;;;;9.00;2.50;;;;;;;;;;5072061;28;20216;-87
2022/09/20 00:29:22;;;;;;;6.63;2.90;;;;;;;;;;5071008;28;20268;-86
2022/09/20 00:31:49;;;;;;;6.37;2.57;;;;;;;;;;5074267;28;20220;-87
2022/09/20 00:37:02;;;;;;;3.33;2.40;;;;;;;;;;5075731;28;20609;-87
2022/09/20 00:39:29;;;;;;;4.83;2.97;;;;;;;;;;5075081;28;20237;-87
2022/09/20 00:41:56;;;;;;;4.47;2.50;;;;;;;;;;5075875;28;20204;-87
2022/09/20 00:44:42;;;;;;;4.43;2.80;;;;;;;;;;5075217;28;20233;-87
2022/09/20 00:47:13;;;;;;;2.87;2.23;;;;;;;;;;5075517;28;20201;-86
2022/09/20 00:49:40;;;;;;;2.50;2.30;;;;;;;;;;5074647;28;20251;-87
2022/09/20 00:52:09;;;;;;;3.33;2.40;;;;;;;;;;5075441;28;20225;-87
2022/09/20 00:54:36;;;;;;;5.03;2.70;;;;;;;;;;5074828;28;20283;-86
2022/09/20 00:57:04;;;;;;;6.00;2.27;;;;;;;;;;5075454;28;20213;-86
2022/09/20 00:59:33;;;;;;;3.50;2.37;;;;;;;;;;5074491;28;20241;-86
2022/09/20 01:02:02;;;;;;;3.40;2.50;;;;;;;;;;5075452;28;20213;-87
2022/09/20 01:04:29;;;;;;;4.07;2.27;;;;;;;;;;5074559;28;20233;-86
2022/09/20 01:06:58;;;;;;;3.57;2.50;;;;;;;;;;5072118;28;20209;-86
2022/09/20 01:09:27;;;;;;;2.77;2.57;;;;;;;;;;5074189;28;20245;-86
2022/09/20 01:11:55;;;;;;;4.83;2.50;;;;;;;;;;5075119;28;20573;-86
2022/09/20 01:14:23;;;;;;;6.03;2.70;;;;;;;;;;5074434;28;20705;-86
2022/09/20 01:16:50;;;;;;;7.57;2.97;;;;;;;;;;5074999;28;20215;-87
2022/09/20 01:19:20;;;;;;;4.03;2.87;;;;;;;;;;5074026;28;20237;-86
2022/09/20 01:21:48;;;;;;;5.53;3.33;;;;;;;;;;5075070;28;20190;-86
2022/09/20 01:24:16;;;;;;;4.77;2.60;;;;;;;;;;5094505;28;20233;-87
2022/09/20 01:27:04;;;;;;;3.33;2.33;;;;;;;;;;5095199;28;20208;-86
2022/09/20 01:29:46;;;;;;;3.60;2.20;;;;;;;;;;5094221;28;20715;-86
2022/09/20 01:32:17;;;;;;;3.23;2.90;;;;;;;;;;5065039;28;20232;-87
2022/09/20 01:34:46;;;;;;;5.10;2.60;;;;;;;;;;5092335;28;20232;-86
2022/09/20 01:37:16;;;;;;;5.57;2.27;;;;;;;;;;5094797;28;20266;-87
2022/09/20 01:39:47;;;;;;;5.43;2.63;;;;;;;;;;5084002;28;20240;-87
2022/09/20 01:42:22;;;;;;;4.70;2.23;;;;;;;;;;5094456;28;20185;-88
2022/09/20 01:44:52;;;;;;;4.97;2.57;;;;;;;;;;5094212;28;20300;-88
2022/09/20 01:47:25;;;;;;;3.30;2.40;;;;;;;;;;5094792;28;20189;-88
2022/09/20 01:49:56;;;;;;;5.13;2.83;;;;;;;;;;5094025;28;20244;-88
2022/09/20 01:52:33;;;;;;;4.03;2.50;;;;;;;;;;5094769;28;20216;-88
2022/09/20 01:55:11;;;;;;;4.40;2.50;;;;;;;;;;5094038;28;20236;-88
2022/09/20 01:58:05;;;;;;;6.83;2.60;;;;;;;;;;5094267;28;20582;-88
2022/09/20 02:00:36;;;;;;;3.23;2.60;;;;;;;;;;5093755;28;20236;-88
2022/09/20 02:03:30;;;;;;;6.70;3.10;;;;;;;;;;5094697;28;20185;-88
2022/09/20 02:06:08;;;;;;;5.83;2.43;;;;;;;;;;5094153;28;20301;-88
2022/09/20 02:08:43;;;;;;;4.27;2.70;;;;;;;;;;5093588;28;20231;-88
2022/09/20 02:11:13;;;;;;;4.60;2.80;;;;;;;;;;5094398;28;20288;-87
2022/09/20 02:13:48;;;;;;;7.70;3.17;;;;;;;;;;5093831;28;20305;-88
2022/09/20 02:16:23;;;;;;;2.67;2.47;;;;;;;;;;5094323;28;20269;-88
2022/09/20 02:19:05;;;;;;;3.23;2.97;;;;;;;;;;5093500;28;20235;-89
2022/09/20 02:21:37;;;;;;;3.30;3.00;;;;;;;;;;5094173;28;20196;-88
2022/09/20 02:24:13;;;;;;;5.30;2.73;;;;;;;;;;5077014;28;20708;-90
2022/09/20 02:26:45;;;;;;;3.53;2.70;;;;;;;;;;5073280;28;20260;-88
2022/09/20 02:29:20;;;;;;;8.33;3.03;;;;;;;;;;5079804;28;20224;-90
2022/09/20 02:32:08;;;;;;;4.17;2.80;;;;;;;;;;5099435;28;20193;-89
2022/09/20 02:34:46;;;;;;;3.23;2.57;;;;;;;;;;5094083;28;20221;-89
2022/09/20 02:37:25;;;;;;;5.60;3.10;;;;;;;;;;5099208;28;20227;-90
2022/09/20 02:39:57;;;;;;;3.30;3.00;;;;;;;;;;5098359;28;20225;-90
2022/09/20 02:42:27;;;;;;;7.37;3.30;;;;;;;;;;5088863;28;20236;-89
2022/09/20 02:44:58;;;;;;;4.73;3.03;;;;;;;;;;5089988;28;20281;-87
2022/09/20 02:47:32;;;;;;;5.27;2.80;;;;;;;;;;5094293;28;20189;-88
2022/09/20 02:50:06;;;;;;;6.23;3.00;;;;;;;;;;5072611;28;20237;-88
2022/09/20 02:52:37;;;;;;;5.63;2.77;;;;;;;;;;5073062;28;20304;-89
2022/09/20 02:55:07;;;;;;;3.67;3.20;;;;;;;;;;5071987;28;20237;-88
2022/09/20 02:57:38;;;;;;;4.27;3.10;;;;;;;;;;5083644;28;20196;-88
2022/09/20 03:00:07;;;;;;;4.53;3.00;;;;;;;;;;5092459;28;20301;-89
2022/09/20 03:02:42;;;;;;;3.37;2.93;;;;;;;;;;5093198;28;20250;-89
2022/09/20 03:05:14;;;;;;;6.23;3.20;;;;;;;;;;5092758;28;20642;-89
2022/09/20 03:07:46;;;;;;;5.17;3.43;;;;;;;;;;5080598;28;20194;-89
2022/09/20 03:10:17;;;;;;;5.33;3.40;;;;;;;;;;5072448;28;20248;-89
2022/09/20 03:12:50;;;;;;;4.60;3.30;;;;;;;;;;5073071;28;20212;-88
2022/09/20 03:15:20;;;;;;;6.80;3.30;;;;;;;;;;5072422;28;20260;-88
2022/09/20 03:17:51;;;;;;;4.77;3.60;;;;;;;;;;5072288;28;20639;-89
2022/09/20 03:20:25;;;;;;;5.17;3.70;;;;;;;;;;5071938;28;20237;-88
2022/09/20 03:22:56;;;;;;;11.00;3.70;;;;;;;;;;5072832;28;20294;-88
2022/09/20 03:25:31;;;;;;;12.17;3.63;;;;;;;;;;5071996;28;20704;-88
2022/09/20 03:28:04;;;;;;;8.30;4.23;;;;;;;;;;5072583;28;20197;-89
2022/09/20 03:30:40;;;;;;;10.90;4.47;;;;;;;;;;5070984;28;20244;-88
2022/09/20 03:33:11;;;;;;;8.47;3.60;;;;;;;;;;5059268;28;20213;-89
2022/09/20 03:35:48;;;;;;;6.73;3.53;;;;;;;;;;5072572;28;20190;-88
2022/09/20 03:38:24;;;;;;;9.77;3.87;;;;;;;;;;5072026;28;20189;-88
2022/09/20 03:41:06;;;;;;;5.57;3.80;;;;;;;;;;5072090;28;20615;-88
2022/09/20 03:43:39;;;;;;;6.90;4.03;;;;;;;;;;5071816;28;20236;-88
2022/09/20 03:46:15;;;;;;;4.87;3.40;;;;;;;;;;5064077;28;20248;-89
2022/09/20 03:48:53;;;;;;;8.23;3.80;;;;;;;;;;5071487;28;20239;-88
2022/09/20 03:51:28;;;;;;;5.97;3.40;;;;;;;;;;5071839;28;20204;-88
2022/09/20 03:54:19;;;;;;;6.27;3.20;;;;;;;;;;5072549;28;20709;-88
2022/09/20 03:57:00;;;;;;;8.93;4.17;;;;;;;;;;5069579;28;20209;-88
2022/09/20 03:59:45;;;;;;;5.60;3.17;;;;;;;;;;5065797;28;20244;-87
2022/09/20 04:02:21;;;;;;;4.03;3.30;;;;;;;;;;5064758;28;20622;-87
2022/09/20 04:04:50;;;;;;;4.63;3.53;;;;;;;;;;5071330;28;20245;-88
2022/09/20 04:07:22;;;;;;;7.17;3.50;;;;;;;;;;5071663;28;20201;-88
2022/09/20 04:09:57;;;;;;;6.17;3.23;;;;;;;;;;5071308;28;20263;-89
2022/09/20 04:12:29;;;;;;;5.07;3.00;;;;;;;;;;5070794;28;20688;-89
2022/09/20 04:15:01;;;;;;;4.30;3.10;;;;;;;;;;5071520;28;20243;-88
2022/09/20 04:17:39;;;;;;;5.37;3.33;;;;;;;;;;5072028;28;20212;-89
2022/09/20 04:20:14;;;;;;;8.00;3.10;;;;;;;;;;5087584;22;20226;-86
2022/09/20 04:22:43;;;;;;;3.80;3.50;;;;;;;;;;5045663;28;20220;-87
2022/09/20 04:25:15;;;;;;;5.30;3.50;;;;;;;;;;5052976;28;20261;-87
2022/09/20 04:27:43;;;;;;;4.07;3.10;;;;;;;;;;5053670;28;20210;-87
2022/09/20 04:30:19;;;;;;;5.00;3.40;;;;;;;;;;5052496;28;20237;-87
2022/09/20 04:32:49;;;;;;;5.00;3.70;;;;;;;;;;5053321;28;20210;-86
2022/09/20 04:38:11;;;;;;;11.03;3.60;;;;;;;;;;5065446;28;20190;-85
2022/09/20 04:40:48;;;;;;;5.80;3.53;;;;;;;;;;5060433;28;20225;-83
2022/09/20 04:43:34;;;;;;;7.13;3.87;;;;;;;;;;5055327;28;20213;-86
2022/09/20 04:46:18;;;;;;;6.43;3.80;;;;;;;;;;5054877;28;20205;-87
2022/09/20 04:49:03;;;;;;;6.53;3.67;;;;;;;;;;5052934;28;20239;-87
2022/09/20 04:51:50;;;;;;;8.30;4.17;;;;;;;;;;5053433;28;20226;-87
2022/09/20 04:54:40;;;;;;;7.27;3.83;;;;;;;;;;5052746;28;20300;-87
2022/09/20 04:57:24;;;;;;;5.73;4.30;;;;;;;;;;5052915;28;20187;-87
2022/09/20 05:00:00;;;;;;;7.60;4.63;;;;;;;;;;5052398;28;20775;-87
2022/09/20 05:02:49;;;;;;;8.03;4.57;;;;;;;;;;5053091;28;20205;-87
2022/09/20 05:05:26;;;;;;;7.97;5.20;;;;;;;;;;5046868;28;20769;-87
2022/09/20 05:08:05;;;;;;;8.90;4.90;;;;;;;;;;5052914;28;20210;-87
2022/09/20 05:10:45;;;;;;;9.43;4.90;;;;;;;;;;5052277;28;20261;-86
2022/09/20 05:13:22;;;;;;;6.80;4.30;;;;;;;;;;5051125;28;20237;-86
2022/09/20 05:15:56;;;;;;;8.87;5.00;;;;;;;;;;5051984;28;20236;-87
2022/09/20 05:18:41;;;;;;;8.90;5.10;;;;;;;;;;5055459;28;20182;-84
2022/09/20 05:21:13;;;;;;;8.10;4.67;;;;;;;;;;5042101;28;20234;-84
2022/09/20 05:23:47;;;;;;;7.80;4.37;;;;;;;;;;5055338;28;20287;-84
2022/09/20 05:26:20;;;;;;;5.00;4.50;;;;;;;;;;5055109;28;20236;-84
2022/09/20 05:28:56;;;;;;;6.70;4.63;;;;;;;;;;5054806;28;20646;-84
2022/09/20 05:31:30;;;;;;;8.10;5.03;;;;;;;;;;5055174;28;20230;-84
2022/09/20 05:34:01;;;;;;;6.07;4.53;;;;;;;;;;5055034;28;20291;-84
2022/09/20 05:36:31;;;;;;;7.90;4.83;;;;;;;;;;5055319;28;20190;-84
2022/09/20 05:39:02;;;;;;;11.70;5.27;;;;;;;;;;5054366;28;20242;-85
2022/09/20 05:41:35;;;;;;;7.73;5.10;;;;;;;;;;5054580;28;20226;-84
2022/09/20 05:44:06;;;;;;;11.00;5.63;;;;;;;;;;5054207;28;20299;-84
2022/09/20 05:46:37;;;;;;;8.60;5.60;;;;;;;;;;5055212;28;20240;-86
2022/09/20 05:49:11;;;;;;;9.77;5.37;;;;;;;;;;5054506;28;20241;-84
2022/09/20 05:51:46;;;;;;;10.33;5.90;;;;;;;;;;5054714;28;20205;-84
2022/09/20 05:54:28;;;;;;;10.57;6.03;;;;;;;;;;5054111;28;20248;-84
2022/09/20 05:57:00;;;;;;;10.17;6.70;;;;;;;;;;5051652;28;20574;-84
2022/09/20 05:59:39;;;;;;;10.23;6.93;;;;;;;;;;5054688;28;20269;-84
2022/09/20 06:02:21;;;;;;;9.53;6.20;;;;;;;;;;5014951;28;20562;-84
2022/09/20 06:04:55;;;;;;;15.17;6.40;;;;;;;;;;5014577;28;20235;-84
2022/09/20 06:07:32;;;;;;;11.90;6.83;;;;;;;;;;5014924;28;20196;-84
2022/09/20 06:10:16;;;;;;;10.73;6.63;;;;;;;;;;5013855;28;20243;-85
2022/09/20 06:12:51;;;;;;;13.63;7.40;;;;;;;;;;5014088;28;20658;-85
2022/09/20 06:15:23;;;;;;;12.37;7.47;;;;;;;;;;5029317;28;20233;-85
2022/09/20 06:17:55;;;;;;;15.43;8.77;;;;;;;;;;5034305;28;20564;-84
2022/09/20 06:20:26;;;;;;;15.47;8.17;;;;;;;;;;5033584;28;20242;-84
2022/09/20 06:22:55;;;;;;;17.93;9.33;;;;;;;;;;5034281;28;20249;-84
2022/09/20 06:25:23;;;;;;;16.87;10.07;;;;;;;;;;5033560;28;20231;-84
2022/09/20 06:27:52;;;;;;;16.00;9.70;;;;;;;;;;5034096;28;20631;-84
2022/09/20 06:30:22;;;;;;;18.53;9.00;;;;;;;;;;5040164;28;20262;-87
2022/09/20 06:32:53;;;;;;;18.23;8.97;;;;;;;;;;5036405;28;20270;-86
2022/09/20 06:35:21;;;;;;;14.93;8.17;;;;;;;;;;5035898;28;20221;-86
2022/09/20 06:43:25;;;;;;;13.73;9.43;;;;;;;;;;5033963;28;20685;-86
2022/09/20 06:45:53;;;;;;;14.60;8.23;;;;;;;;;;5033427;28;20661;-87
2022/09/20 06:48:20;;;;;;;17.43;8.87;;;;;;;;;;5042464;28;20217;-86
2022/09/20 06:50:47;;;;;;;18.57;9.20;;;;;;;;;;5041478;28;20219;-86
2022/09/20 06:53:16;;;;;;;16.63;8.90;;;;;;;;;;5040657;28;20636;-87
2022/09/20 06:55:44;;;;;;;16.73;8.30;;;;;;;;;;5039317;28;20214;-86
2022/09/20 06:58:11;;;;;;;14.80;7.93;;;;;;;;;;5032896;28;20206;-86
2022/09/20 07:00:39;;;;;;;17.90;8.27;;;;;;;;;;5033846;28;20226;-86
2022/09/20 07:03:08;;;;;;;16.13;8.33;;;;;;;;;;5032033;28;20253;-86
2022/09/20 07:05:36;;;;;;;19.83;8.33;;;;;;;;;;5040799;28;20309;-86
2022/09/20 07:08:05;;;;;;;12.70;7.87;;;;;;;;;;5050130;28;20214;-86
2022/09/20 07:10:32;;;;;;;16.23;7.97;;;;;;;;;;5035588;28;20254;-85
2022/09/20 07:13:00;;;;;;;14.27;7.53;;;;;;;;;;5034978;28;20213;-85
2022/09/20 07:15:27;;;;;;;15.40;8.27;;;;;;;;;;5033172;28;20245;-86
2022/09/20 07:17:55;;;;;;;10.97;7.57;;;;;;;;;;5033680;28;20206;-86
2022/09/20 07:20:23;;;;;;;18.13;8.57;;;;;;;;;;5032604;28;20709;-86
2022/09/20 07:22:51;;;;;;;17.87;7.20;;;;;;;;;;5034921;28;20194;-86
2022/09/20 07:25:18;;;;;;;14.57;7.40;;;;;;;;;;5032206;28;20713;-86
2022/09/20 07:27:46;;;;;;;13.03;7.13;;;;;;;;;;5032329;28;20674;-86
2022/09/20 07:30:13;;;;;;;12.47;8.23;;;;;;;;;;5032359;28;20239;-86
2022/09/20 07:32:41;;;;;;;10.80;7.30;;;;;;;;;;5034266;28;20286;-86
2022/09/20 07:35:08;;;;;;;12.23;7.93;;;;;;;;;;5033232;28;20244;-86
2022/09/20 07:37:40;;;;;;;12.47;7.73;;;;;;;;;;5034093;28;20225;-86
2022/09/20 07:40:08;;;;;;;14.60;7.17;;;;;;;;;;5033502;28;20242;-86
2022/09/20 07:42:35;;;;;;;13.33;6.97;;;;;;;;;;5033519;28;20244;-85
2022/09/20 07:45:02;;;;;;;14.93;8.07;;;;;;;;;;5031476;28;20238;-86
2022/09/20 07:47:30;;;;;;;13.73;8.13;;;;;;;;;;5031694;28;20247;-86
2022/09/20 07:49:57;;;;;;;10.83;6.80;;;;;;;;;;5031513;28;20266;-87
2022/09/20 07:52:24;;;;;;;12.60;6.80;;;;;;;;;;5031696;28;20663;-87
2022/09/20 07:54:53;;;;;;;12.00;6.10;;;;;;;;;;5031220;28;20620;-86
2022/09/20 07:57:20;;;;;;;9.77;6.00;;;;;;;;;;5031967;28;20626;-87
2022/09/20 07:59:47;;;;;;;9.03;6.37;;;;;;;;;;5031880;28;20243;-85
2022/09/20 08:02:15;;;;;;;14.17;6.37;;;;;;;;;;5051185;28;20233;-86
2022/09/20 08:04:42;;;;;;;9.90;5.53;;;;;;;;;;5051296;28;20658;-85
2022/09/20 08:07:09;;;;;;;8.47;5.07;;;;;;;;;;5051388;28;20210;-86
2022/09/20 08:09:36;;;;;;;8.20;5.60;;;;;;;;;;5050882;28;20238;-84
2022/09/20 08:12:07;;;;;;;9.50;5.20;;;;;;;;;;5051451;28;20677;-85
2022/09/20 08:14:35;;;;;;;8.43;5.17;;;;;;;;;;5046270;28;20234;-86
2022/09/20 08:17:02;;;;;;;13.50;5.77;;;;;;;;;;5031725;28;20592;-86
2022/09/20 08:19:29;;;;;;;10.97;6.10;;;;;;;;;;5030667;28;20726;-86
2022/09/20 08:21:56;;;;;;;13.60;5.60;;;;;;;;;;5030975;28;20210;-86
2022/09/20 08:24:25;;;;;;;9.80;5.50;;;;;;;;;;5030885;28;20234;-86
2022/09/20 08:26:52;;;;;;;10.73;5.77;;;;;;;;;;5031271;28;20232;-86
2022/09/20 08:29:20;;;;;;;10.13;5.27;;;;;;;;;;5030627;28;20242;-85
2022/09/20 08:31:48;;;;;;;8.70;5.50;;;;;;;;;;5031465;28;20241;-86
2022/09/20 08:34:15;;;;;;;9.23;5.40;;;;;;;;;;5030831;28;20238;-85
2022/09/20 08:36:45;;;;;;;9.83;5.40;;;;;;;;;;5031702;28;20288;-85
2022/09/20 08:39:12;;;;;;;8.57;4.60;;;;;;;;;;5030893;28;20234;-85
2022/09/20 08:41:43;;;;;;;10.17;5.50;;;;;;;;;;5031172;28;20679;-86
2022/09/20 08:44:13;;;;;;;12.63;5.47;;;;;;;;;;5030685;28;20227;-85
2022/09/20 08:46:42;;;;;;;11.13;5.73;;;;;;;;;;5031478;28;20663;-86
2022/09/20 08:49:14;;;;;;;7.53;5.10;;;;;;;;;;5030329;28;20235;-85
2022/09/20 08:51:42;;;;;;;9.60;5.40;;;;;;;;;;5032486;28;20217;-86
2022/09/20 08:54:13;;;;;;;8.70;5.20;;;;;;;;;;5034975;28;20226;-86
2022/09/20 08:56:40;;;;;;;8.67;4.90;;;;;;;;;;5044523;28;20207;-87
2022/09/20 08:59:11;;;;;;;8.40;5.03;;;;;;;;;;5034767;28;20230;-86
2022/09/20 09:01:38;;;;;;;7.27;4.87;;;;;;;;;;5036143;28;20218;-86
2022/09/20 09:04:14;;;;;;;8.63;4.30;;;;;;;;;;5039037;28;20230;-86
2022/09/20 09:06:42;;;;;;;12.70;5.00;;;;;;;;;;5037974;28;20214;-86
2022/09/20 09:09:14;;;;;;;11.40;4.30;;;;;;;;;;5037145;28;20272;-86
2022/09/20 09:11:42;;;;;;;6.47;4.10;;;;;;;;;;5038614;28;20213;-86
2022/09/20 09:16:54;;;;;;;9.70;3.87;;;;;;;;;;5036972;28;20248;-86
2022/09/20 09:19:29;;;;;;;6.00;3.40;;;;;;;;;;5036372;28;20230;-85
2022/09/20 09:21:57;;;;;;;7.23;3.80;;;;;;;;;;5039539;28;20194;-86
2022/09/20 09:24:25;;;;;;;8.80;3.63;;;;;;;;;;5038092;28;20254;-86
2022/09/20 09:27:05;;;;;;;8.60;3.70;;;;;;;;;;5039711;28;20199;-86
2022/09/20 09:29:32;;;;;;;5.60;3.73;;;;;;;;;;5033600;28;20253;-86
2022/09/20 09:32:18;;;;;;;8.20;4.20;;;;;;;;;;5037869;28;20245;-86
2022/09/20 09:34:52;;;;;;;3.77;2.83;;;;;;;;;;5035582;28;20269;-86
2022/09/20 09:37:25;;;;;;;6.20;3.37;;;;;;;;;;5040253;28;20285;-85
2022/09/20 09:40:08;;;;;;;6.33;3.03;;;;;;;;;;5035770;28;20239;-86
2022/09/20 09:42:35;;;;;;;9.70;3.33;;;;;;;;;;5038190;28;20252;-86
2022/09/20 09:45:11;;;;;;;5.80;2.93;;;;;;;;;;5036455;28;20349;-87
2022/09/20 09:47:39;;;;;;;3.90;3.00;;;;;;;;;;5037671;28;20203;-86
2022/09/20 09:50:21;;;;;;;7.50;3.30;;;;;;;;;;5037422;28;20272;-86
2022/09/20 09:52:58;;;;;;;7.13;2.90;;;;;;;;;;5039112;28;20195;-87
2022/09/20 09:55:26;;;;;;;5.90;2.87;;;;;;;;;;5037496;28;20233;-86
2022/09/20 09:57:59;;;;;;;4.97;3.10;;;;;;;;;;5037029;28;20203;-86
2022/09/20 10:00:27;;;;;;;4.97;2.97;;;;;;;;;;5039250;28;20238;-86
2022/09/20 10:03:09;;;;;;;7.67;2.90;;;;;;;;;;5037388;28;20856;-86
2022/09/20 10:05:43;;;;;;;9.27;3.10;;;;;;;;;;5037118;28;20238;-87
2022/09/20 10:08:17;;;;;;;4.93;2.60;;;;;;;;;;5018411;28;20382;-86
2022/09/20 10:10:51;;;;;;;5.27;2.30;;;;;;;;;;5022643;28;20720;-86
2022/09/20 10:13:23;;;;;;;3.67;2.33;;;;;;;;;;5036718;28;20218;-87
2022/09/20 10:15:54;;;;;;;4.50;2.30;;;;;;;;;;5037152;28;20215;-86
2022/09/20 10:18:32;;;;;;;3.13;2.20;;;;;;;;;;5037108;28;20306;-86
2022/09/20 10:21:06;;;;;;;5.17;2.00;;;;;;;;;;5038332;28;20241;-86
2022/09/20 10:23:40;;;;;;;4.80;2.23;;;;;;;;;;5036155;28;20672;-86
2022/09/20 10:26:12;;;;;;;5.37;2.13;;;;;;;;;;5025266;28;20257;-85
2022/09/20 10:28:49;;;;;;;6.80;2.27;;;;;;;;;;5036118;28;20285;-86
2022/09/20 10:31:21;;;;;;;5.43;2.37;;;;;;;;;;5036464;28;20687;-86
2022/09/20 10:33:52;;;;;;;5.97;2.50;;;;;;;;;;5037136;28;20245;-85
2022/09/20 10:36:24;;;;;;;3.43;2.10;;;;;;;;;;5037416;28;20206;-86
2022/09/20 10:38:57;;;;;;;4.37;2.23;;;;;;;;;;5035427;28;20601;-86
2022/09/20 10:44:30;;;;;;;4.60;2.10;;;;;;;;;;5035704;28;20304;-86
2022/09/20 10:47:00;;;;;;;4.90;2.17;;;;;;;;;;5036432;28;20198;-86
2022/09/20 10:49:28;;;;;;;7.90;2.60;;;;;;;;;;5033135;28;20230;-86
2022/09/20 10:52:04;;;;;;;3.27;1.50;;;;;;;;;;5037466;28;20211;-85
2022/09/20 10:54:37;;;;;;;3.67;1.80;;;;;;;;;;5036569;28;20266;-86
2022/09/20 10:57:11;;;;;;;3.42;1.50;;;;;;;;;;5037307;28;20223;-85
2022/09/20 10:59:46;;;;;;;2.73;1.70;;;;;;;;;;5036843;28;20243;-86
2022/09/20 11:02:17;;;;;;;2.70;1.77;;;;;;;;;;5035243;28;20628;-85
2022/09/20 11:05:05;;;;;;;6.25;1.80;;;;;;;;;;5032037;28;20234;-85
2022/09/20 11:07:41;;;;;;;2.97;1.83;;;;;;;;;;5027487;28;20659;-86
2022/09/20 11:10:15;;;;;;;3.33;1.60;;;;;;;;;;5048134;28;20233;-85
2022/09/20 11:12:44;;;;;;;5.70;1.88;;;;;;;;;;5039160;28;20206;-86
2022/09/20 11:15:15;;;;;;;5.97;1.88;;;;;;;;;;5031240;28;20234;-86
2022/09/20 11:17:43;;;;;;;4.47;1.90;;;;;;;;;;5032483;28;20238;-86
2022/09/20 11:20:17;;;;;;;6.18;2.10;;;;;;;;;;5031654;28;20231;-85
2022/09/20 11:22:48;;;;;;;3.20;1.95;;;;;;;;;;5032605;28;20261;-86
2022/09/20 11:25:18;;;;;;;4.53;1.83;;;;;;;;;;5032894;28;20229;-85
2022/09/20 11:27:46;;;;;;;9.20;1.98;;;;;;;;;;5034215;28;20233;-86
2022/09/20 11:30:16;;;;;;;5.18;1.58;;;;;;;;;;5031479;28;20234;-86
2022/09/20 11:32:47;;;;;;;2.95;1.77;;;;;;;;;;5034887;28;20199;-85
2022/09/20 11:35:21;;;;;;;2.33;1.70;;;;;;;;;;5042934;28;20233;-85
2022/09/20 11:37:52;;;;;;;3.40;1.85;;;;;;;;;;5034230;28;20265;-85
2022/09/20 11:40:23;;;;;;;9.43;2.33;;;;;;;;;;5033999;28;20318;-86
2022/09/20 11:42:53;;;;;;;4.53;1.92;;;;;;;;;;5035132;28;20207;-86
2022/09/20 11:45:20;;;;;;;3.45;2.22;;;;;;;;;;5035860;28;20260;-85
2022/09/20 11:47:50;;;;;;;3.20;1.52;;;;;;;;;;5049089;28;20199;-85
2022/09/20 11:50:35;;;;;;;2.67;1.73;;;;;;;;;;5043101;28;20242;-84
2022/09/20 11:53:11;;;;;;;2.65;1.80;;;;;;;;;;5041033;28;20190;-84
2022/09/20 11:55:42;;;;;;;6.38;2.13;;;;;;;;;;5035861;28;20222;-86
2022/09/20 11:58:11;;;;;;;6.00;1.77;;;;;;;;;;5034582;28;20198;-84
2022/09/20 12:00:40;;;;;;;3.83;2.03;;;;;;;;;;5030377;28;20230;-84
2022/09/20 12:03:11;;;;;;;5.07;1.40;;;;;;;;;;5053978;28;20240;-84
2022/09/20 12:05:40;;;;;;;2.38;1.50;;;;;;;;;;5054540;28;20202;-84
2022/09/20 12:08:18;;;;;;;1.85;1.60;;;;;;;;;;5037281;28;20298;-86
2022/09/20 12:10:55;;;;;;;3.97;2.15;;;;;;;;;;5042652;28;20241;-86
2022/09/20 12:13:25;;;;;;;4.32;2.20;;;;;;;;;;5043883;28;20260;-87
2022/09/20 12:15:59;;;;;;;3.28;1.77;;;;;;;;;;5054506;28;20222;-86
2022/09/20 12:18:37;;;;;;;5.80;2.28;;;;;;;;;;5033443;28;20207;-87
2022/09/20 12:21:06;;;;;;;2.72;1.70;;;;;;;;;;5031970;28;20234;-87
2022/09/20 12:23:51;;;;;;;3.33;1.80;;;;;;;;;;5031799;28;20300;-86
2022/09/20 12:26:34;;;;;;;3.28;2.38;;;;;;;;;;5034585;28;20202;-84
2022/09/20 12:29:10;;;;;;;3.90;2.13;;;;;;;;;;5037741;28;20242;-82
2022/09/20 12:31:39;;;;;;;3.92;1.90;;;;;;;;;;5037042;28;20205;-85
2022/09/20 12:34:33;;;;;;;3.65;2.03;;;;;;;;;;5037311;28;20324;-84
2022/09/20 12:37:22;;;;;;;1.60;1.50;;;;;;;;;;5021841;28;20558;-85
2022/09/20 12:39:54;;;;;;;6.10;2.88;;;;;;;;;;5058978;28;20245;-85
2022/09/20 12:42:28;;;;;;;4.63;2.40;;;;;;;;;;5052892;28;20221;-83
2022/09/20 12:45:01;;;;;;;2.92;1.88;;;;;;;;;;5044180;28;20234;-83
2022/09/20 12:47:30;;;;;;;5.75;2.40;;;;;;;;;;5044120;28;20190;-83
2022/09/20 12:52:56;;;;;;;5.28;2.35;;;;;;;;;;5043307;28;20205;-81
2022/09/20 12:55:30;;;;;;;6.68;2.25;;;;;;;;;;5043517;28;20230;-82
2022/09/20 12:58:00;;;;;;;4.20;2.10;;;;;;;;;;5039879;28;20675;-86
2022/09/20 13:00:39;;;;;;;4.38;2.53;;;;;;;;;;5040431;28;20645;-85
2022/09/20 13:03:27;;;;;;;7.93;2.08;;;;;;;;;;5044309;28;20505;-81
2022/09/20 13:06:11;;;;;;;4.85;2.00;;;;;;;;;;5041425;28;20246;-80
2022/09/20 13:08:41;;;;;;;4.32;2.25;;;;;;;;;;5042185;28;20710;-80
2022/09/20 13:11:12;;;;;;;2.92;2.10;;;;;;;;;;5060244;28;20249;-80
2022/09/20 13:13:43;;;;;;;2.25;1.70;;;;;;;;;;5045894;28;20322;-84
2022/09/20 13:16:18;;;;;;;4.72;1.95;;;;;;;;;;5042490;28;20218;-80
2022/09/20 13:18:47;;;;;;;3.72;1.98;;;;;;;;;;5041640;28;20245;-81
2022/09/20 13:21:14;;;;;;;3.50;2.00;;;;;;;;;;5059202;28;20226;-80
2022/09/20 13:23:46;;;;;;;4.28;1.65;;;;;;;;;;5056869;28;20238;-81
2022/09/20 13:26:15;;;;;;;2.70;2.10;;;;;;;;;;5039832;28;20257;-85
2022/09/20 13:28:46;;;;;;;3.75;2.00;;;;;;;;;;5037092;28;20230;-80
2022/09/20 13:31:32;;;;;;;3.55;2.00;;;;;;;;;;5037687;28;20596;-80
2022/09/20 13:34:16;;;;;;;2.00;1.70;;;;;;;;;;5021349;28;20231;-81
2022/09/20 13:36:51;;;;;;;5.30;2.05;;;;;;;;;;5041434;28;20215;-82
2022/09/20 13:39:40;;;;;;;3.95;1.92;;;;;;;;;;5044405;28;20245;-83
2022/09/20 13:42:10;;;;;;;3.10;1.95;;;;;;;;;;5038049;28;20213;-83
2022/09/20 13:44:37;;;;;;;2.63;1.70;;;;;;;;;;5042714;28;20284;-82
2022/09/20 13:47:21;;;;;;;2.85;1.80;;;;;;;;;;5045554;28;20199;-82
2022/09/20 13:49:49;;;;;;;4.45;2.05;;;;;;;;;;5044660;28;20238;-81
2022/09/20 13:52:22;;;;;;;4.97;1.70;;;;;;;;;;5044196;28;20215;-82
2022/09/20 13:54:49;;;;;;;3.42;1.88;;;;;;;;;;5043209;28;20273;-81
2022/09/20 13:57:19;;;;;;;4.45;2.00;;;;;;;;;;5043007;28;20223;-82
2022/09/20 13:59:47;;;;;;;3.83;2.00;;;;;;;;;;5042447;28;20242;-83
2022/09/20 14:02:21;;;;;;;3.63;2.10;;;;;;;;;;5038952;28;20213;-85
2022/09/20 14:04:49;;;;;;;4.03;1.98;;;;;;;;;;5036902;28;20238;-86
2022/09/20 14:07:17;;;;;;;3.53;2.13;;;;;;;;;;5036878;28;20210;-84
2022/09/20 14:09:45;;;;;;;2.70;1.93;;;;;;;;;;5034200;28;20242;-85
2022/09/20 14:12:13;;;;;;;1.93;1.73;;;;;;;;;;5033806;28;20659;-84
2022/09/20 14:14:40;;;;;;;5.77;2.20;;;;;;;;;;5036867;28;20258;-84
2022/09/20 14:17:09;;;;;;;4.80;2.20;;;;;;;;;;5035100;28;20207;-84
2022/09/20 14:19:41;;;;;;;4.53;2.57;;;;;;;;;;5020126;28;20242;-84
2022/09/20 14:22:08;;;;;;;4.47;2.80;;;;;;;;;;5031098;28;20211;-84
2022/09/20 14:24:36;;;;;;;4.17;2.60;;;;;;;;;;5034213;28;20254;-84
2022/09/20 14:27:14;;;;;;;7.67;2.23;;;;;;;;;;5034893;28;20571;-85
2022/09/20 14:29:42;;;;;;;4.00;2.47;;;;;;;;;;5033189;28;20307;-84
2022/09/20 14:32:12;;;;;;;4.30;2.73;;;;;;;;;;5033774;28;20206;-84
2022/09/20 14:34:41;;;;;;;3.33;2.47;;;;;;;;;;5033322;28;20865;-84
2022/09/20 14:37:12;;;;;;;3.93;2.17;;;;;;;;;;5033583;28;20214;-84
2022/09/20 14:39:46;;;;;;;2.33;2.10;;;;;;;;;;5032776;28;20239;-84
2022/09/20 14:42:18;;;;;;;5.83;2.47;;;;;;;;;;5033633;28;20191;-84
2022/09/20 14:44:45;;;;;;;4.17;2.20;;;;;;;;;;5033600;28;20726;-84
2022/09/20 14:47:14;;;;;;;5.83;2.90;;;;;;;;;;5033624;28;20577;-84
2022/09/20 14:49:43;;;;;;;5.43;2.50;;;;;;;;;;5031755;28;20249;-84
2022/09/20 14:52:25;;;;;;;4.03;2.30;;;;;;;;;;5028451;28;20214;-84
2022/09/20 14:54:59;;;;;;;4.73;2.50;;;;;;;;;;4997593;28;20235;-84
2022/09/20 14:57:31;;;;;;;3.20;2.33;;;;;;;;;;5026400;28;20265;-84
2022/09/20 14:59:58;;;;;;;5.53;3.70;;;;;;;;;;5025531;28;20249;-84
2022/09/20 15:02:25;;;;;;;4.33;2.40;;;;;;;;;;5033843;28;20206;-84
2022/09/20 15:04:55;;;;;;;7.47;2.30;;;;;;;;;;5033153;28;20241;-85
2022/09/20 15:07:22;;;;;;;4.30;2.50;;;;;;;;;;5020183;28;20519;-85
2022/09/20 15:09:50;;;;;;;3.67;2.40;;;;;;;;;;5013040;28;20239;-85
2022/09/20 15:12:18;;;;;;;3.80;2.87;;;;;;;;;;5014425;28;20552;-86
2022/09/20 15:14:46;;;;;;;3.60;2.30;;;;;;;;;;5013466;28;20609;-86
2022/09/20 15:17:15;;;;;;;4.23;2.13;;;;;;;;;;5013967;28;20211;-85
2022/09/20 15:19:42;;;;;;;2.83;2.37;;;;;;;;;;5013912;28;20239;-85
2022/09/20 15:22:11;;;;;;;2.83;2.43;;;;;;;;;;5014088;28;20215;-85
2022/09/20 15:24:38;;;;;;;6.10;2.43;;;;;;;;;;5013284;28;20715;-85
2022/09/20 15:27:05;;;;;;;2.80;2.40;;;;;;;;;;5014110;28;20214;-85
2022/09/20 15:29:32;;;;;;;3.60;2.40;;;;;;;;;;5030907;28;20245;-85
2022/09/20 15:32:00;;;;;;;7.40;2.50;;;;;;;;;;5032591;28;20207;-85